createdAt,value
2019-05-19T06:48:12.488Z,51.80
2019-05-19T06:50:41.792Z,52.00
2019-05-19T06:53:14.412Z,52.30
2019-05-19T06:55:42.295Z,53.50
2019-05-19T06:58:11.714Z,53.20
2019-05-19T07:00:41.438Z,52.30
2019-05-19T07:03:10.835Z,51.70
2019-05-19T07:05:40.179Z,52.10
2019-05-19T07:08:10.623Z,53.60
2019-05-19T07:10:40.022Z,52.10
2019-05-19T07:13:09.390Z,52.70
2019-05-19T07:15:38.835Z,51.50
2019-05-19T07:18:08.315Z,52.40
2019-05-19T07:20:37.773Z,52.20
2019-05-19T07:23:07.214Z,61.80
2019-05-19T07:25:36.717Z,63.10
2019-05-19T07:28:06.328Z,74.20
2019-05-19T07:30:35.841Z,65.20
2019-05-19T07:33:05.343Z,75.00
2019-05-19T07:35:34.807Z,74.60
2019-05-19T07:38:07.267Z,71.00
2019-05-19T07:40:35.388Z,76.60
2019-05-19T07:43:04.794Z,75.40
2019-05-19T07:45:34.189Z,80.10
2019-05-19T07:48:03.693Z,77.10
2019-05-19T07:50:33.137Z,84.80
2019-05-19T07:53:02.696Z,78.20
2019-05-19T07:55:32.203Z,82.60
2019-05-19T07:58:01.711Z,84.30
2019-05-19T08:00:31.316Z,83.90
2019-05-19T08:03:00.919Z,80.70
2019-05-19T08:05:30.426Z,90.00
2019-05-19T08:07:59.830Z,85.40
2019-05-19T08:10:30.352Z,84.70
2019-05-19T08:12:59.859Z,88.00
2019-05-19T08:15:29.364Z,88.50
2019-05-19T08:17:58.866Z,83.40
2019-05-19T08:22:58.802Z,86.00
2019-05-19T08:25:31.480Z,86.10
2019-05-19T08:28:08.581Z,86.40
2019-05-19T08:30:32.021Z,88.40
2019-05-19T08:33:02.810Z,88.90
2019-05-19T08:35:32.334Z,86.00
2019-05-19T08:38:01.981Z,89.20
2019-05-19T08:40:31.423Z,89.90
2019-05-19T08:43:00.932Z,89.50
2019-05-19T08:45:30.477Z,89.40
2019-05-19T08:47:59.875Z,89.20
2019-05-19T08:50:29.283Z,88.80
2019-05-19T08:52:58.735Z,89.30
2019-05-19T08:55:28.152Z,87.60
2019-05-19T08:57:57.566Z,87.40
2019-05-19T09:00:26.987Z,88.00
2019-05-19T09:02:56.520Z,86.60
2019-05-19T09:05:26.056Z,76.50
2019-05-19T09:07:55.602Z,85.40
2019-05-19T09:10:25.196Z,85.80
2019-05-19T09:14:03.630Z,83.20
2019-05-19T09:16:33.234Z,81.20
2019-05-19T09:19:03.666Z,81.50
2019-05-19T09:21:33.173Z,81.30
2019-05-19T09:24:02.776Z,80.20
2019-05-19T09:29:01.632Z,81.30
2019-05-19T09:31:31.355Z,80.10
2019-05-19T09:34:00.874Z,79.00
2019-05-19T09:36:30.294Z,80.30
2019-05-19T09:38:59.700Z,78.80
2019-05-19T09:41:29.196Z,75.50
2019-05-19T09:43:58.563Z,76.60
2019-05-19T09:46:28.000Z,75.70
2019-05-19T09:49:15.191Z,75.50
2019-05-19T09:51:44.732Z,75.80
2019-05-19T09:54:14.227Z,75.30
2019-05-19T09:56:43.732Z,75.20
2019-05-19T09:59:13.130Z,72.80
2019-05-19T10:01:42.741Z,72.40
2019-05-19T10:04:12.147Z,73.10
2019-05-19T10:06:44.433Z,66.00
2019-05-19T10:09:32.758Z,70.90
2019-05-19T10:12:07.277Z,68.90
2019-05-19T10:14:36.787Z,69.50
2019-05-19T10:17:06.221Z,70.60
2019-05-19T10:19:35.619Z,69.30
2019-05-19T10:22:04.993Z,70.00
2019-05-19T10:24:34.593Z,65.50
2019-05-19T10:27:04.012Z,68.00
2019-05-19T10:29:33.601Z,67.20
2019-05-19T10:32:03.005Z,64.60
2019-05-19T10:34:32.402Z,64.90
2019-05-19T10:37:02.011Z,63.30
2019-05-19T10:39:31.416Z,63.40
2019-05-19T10:42:00.735Z,60.50
2019-05-19T10:44:30.322Z,63.00
2019-05-19T10:46:59.924Z,59.50
2019-05-19T10:49:29.441Z,56.80
2019-05-19T10:51:59.136Z,58.30
2019-05-19T10:54:29.788Z,58.30
2019-05-19T10:56:59.167Z,59.50
2019-05-19T10:59:28.571Z,57.40
2019-05-19T11:01:58.183Z,57.60
2019-05-19T11:04:27.580Z,55.00
2019-05-19T11:06:57.090Z,54.70
2019-05-19T11:09:26.491Z,56.10
2019-05-19T11:11:55.994Z,53.90
2019-05-19T11:14:25.392Z,53.80
2019-05-19T11:16:54.965Z,51.20
2019-05-19T11:19:26.037Z,52.30
2019-05-19T11:21:55.541Z,50.30
2019-05-19T11:24:25.149Z,49.90
2019-05-19T11:26:54.756Z,48.30
2019-05-19T11:29:24.158Z,49.70
2019-05-19T11:31:53.573Z,46.60
2019-05-19T11:34:23.063Z,45.10
2019-05-19T11:36:52.565Z,43.10
2019-05-19T11:42:06.427Z,41.80
2019-05-19T11:44:36.870Z,40.70
2019-05-19T11:47:06.164Z,39.70
2019-05-19T11:49:35.754Z,38.70
2019-05-19T11:52:08.431Z,37.90
2019-05-19T11:54:37.838Z,37.70
2019-05-19T11:57:07.243Z,38.90
2019-05-19T11:59:36.644Z,38.10
2019-05-19T12:02:06.096Z,37.10
2019-05-19T12:04:35.698Z,36.90
2019-05-19T12:07:05.462Z,35.70
2019-05-19T12:09:34.869Z,34.60
2019-05-19T12:12:04.369Z,33.30
2019-05-19T12:14:33.770Z,33.10
2019-05-19T12:17:03.203Z,31.50
2019-05-19T12:19:32.771Z,31.50
2019-05-19T12:22:02.255Z,31.40
2019-05-19T12:24:31.784Z,30.20
2019-05-19T12:27:01.187Z,30.90
2019-05-19T12:29:30.692Z,30.70
2019-05-19T12:32:00.248Z,30.30
2019-05-19T12:34:29.800Z,29.90
2019-05-19T12:36:59.300Z,29.10
2019-05-19T12:39:30.627Z,28.00
2019-05-19T12:41:59.853Z,28.60
2019-05-19T12:44:29.304Z,27.40
2019-05-19T12:46:59.996Z,27.60
2019-05-19T12:49:29.384Z,26.90
2019-05-19T12:54:10.036Z,26.70
2019-05-19T12:56:40.369Z,26.50
2019-05-19T12:59:09.995Z,26.80
2019-05-19T13:01:39.445Z,25.90
2019-05-19T13:04:10.531Z,25.90
2019-05-19T13:06:40.448Z,25.70
2019-05-19T13:09:11.371Z,25.90
2019-05-19T13:11:40.890Z,24.70
2019-05-19T13:14:10.295Z,24.90
2019-05-19T13:16:41.026Z,24.60
2019-05-19T13:19:10.531Z,24.20
2019-05-19T13:21:40.035Z,24.30
2019-05-19T13:24:10.683Z,24.00
2019-05-19T13:26:54.178Z,24.40
2019-05-19T13:29:11.314Z,23.70
2019-05-19T13:31:40.968Z,23.80
2019-05-19T13:34:10.448Z,23.60
2019-05-19T13:36:41.693Z,23.20
2019-05-19T13:41:52.044Z,23.20
2019-05-19T13:44:21.592Z,23.00
2019-05-19T13:46:51.051Z,22.60
2019-05-19T13:49:20.665Z,22.10
2019-05-19T13:51:50.181Z,22.40
2019-05-19T13:54:19.584Z,22.70
2019-05-19T13:56:50.815Z,23.90
2019-05-19T13:59:20.318Z,25.80
2019-05-19T14:01:49.918Z,25.90
2019-05-19T14:04:19.429Z,25.20
2019-05-19T14:06:48.721Z,24.80
2019-05-19T14:09:19.669Z,24.80
2019-05-19T14:11:48.871Z,24.00
2019-05-19T14:14:18.273Z,24.00
2019-05-19T14:16:47.764Z,24.00
2019-05-19T14:19:17.374Z,24.50
2019-05-19T14:21:47.207Z,27.10
2019-05-19T14:24:17.202Z,25.60
2019-05-19T14:26:46.598Z,24.30
2019-05-19T14:29:15.898Z,24.30
2019-05-19T14:31:45.302Z,24.00
2019-05-19T14:34:14.812Z,24.40
2019-05-19T14:36:44.104Z,23.90
2019-05-19T14:39:14.203Z,24.40
2019-05-19T14:41:45.470Z,24.30
2019-05-19T14:44:14.873Z,24.10
2019-05-19T14:46:44.278Z,24.20
2019-05-19T14:49:13.886Z,24.50
2019-05-19T14:51:44.329Z,24.50
2019-05-19T14:54:13.817Z,24.60
2019-05-19T14:56:43.218Z,24.30
2019-05-19T14:59:12.458Z,24.20
2019-05-19T15:01:42.003Z,24.10
2019-05-19T15:04:11.430Z,24.10
2019-05-19T15:06:40.685Z,24.10
2019-05-19T15:09:10.116Z,24.10
2019-05-19T15:11:40.099Z,24.10
2019-05-19T15:14:09.966Z,24.90
2019-05-19T15:16:39.448Z,24.80
2019-05-19T15:19:08.854Z,25.00
2019-05-19T15:21:38.361Z,25.20
2019-05-19T15:24:08.444Z,25.50
2019-05-19T15:26:37.978Z,25.90
2019-05-19T15:29:07.277Z,26.10
2019-05-19T15:34:08.243Z,26.40
2019-05-19T15:36:37.736Z,26.60
2019-05-19T15:41:36.098Z,29.90
2019-05-19T15:44:07.118Z,32.40
2019-05-19T15:46:36.578Z,30.10
2019-05-19T15:49:06.700Z,30.40
2019-05-19T15:51:37.737Z,29.40
2019-05-19T15:54:07.240Z,29.70
2019-05-19T15:56:36.842Z,30.50
2019-05-19T15:59:07.269Z,31.70
2019-05-19T16:01:36.772Z,30.40
2019-05-19T16:04:06.199Z,30.20
2019-05-19T16:06:38.954Z,31.00
2019-05-19T16:09:07.286Z,31.90
2019-05-19T16:11:36.942Z,31.90
2019-05-19T16:14:06.545Z,30.10
2019-05-19T16:16:36.054Z,32.20
2019-05-19T16:19:06.584Z,32.10
2019-05-19T16:21:36.187Z,33.30
2019-05-19T16:24:05.697Z,30.00
2019-05-19T16:26:35.090Z,30.20
2019-05-19T16:29:04.593Z,30.60
2019-05-19T16:34:14.868Z,31.60
2019-05-19T16:36:44.371Z,31.90
2019-05-19T16:39:13.880Z,30.70
2019-05-19T16:41:43.487Z,32.90
2019-05-19T16:44:14.009Z,33.00
2019-05-19T16:46:43.516Z,32.00
2019-05-19T16:49:12.916Z,33.40
2019-05-19T16:51:42.371Z,32.40
2019-05-19T16:54:13.562Z,33.10
2019-05-19T16:56:45.320Z,33.70
2019-05-19T16:59:14.767Z,34.40
2019-05-19T17:01:44.337Z,35.50
2019-05-19T17:04:13.810Z,36.00
2019-05-19T17:06:43.343Z,36.60
2019-05-19T17:09:12.755Z,36.70
2019-05-19T17:11:42.244Z,37.40
2019-05-19T17:14:11.690Z,37.20
2019-05-19T17:16:41.129Z,38.30
2019-05-19T17:19:10.585Z,38.00
2019-05-19T17:22:15.894Z,37.90
2019-05-19T17:24:45.264Z,38.00
2019-05-19T17:27:15.823Z,38.20
2019-05-19T17:29:45.400Z,38.80
2019-05-19T17:32:14.832Z,39.30
2019-05-19T17:34:44.339Z,38.40
2019-05-19T17:37:15.279Z,39.70
2019-05-19T17:39:44.783Z,39.00
2019-05-19T17:42:14.030Z,39.80
2019-05-19T17:44:43.370Z,40.10
2019-05-19T17:47:12.786Z,40.50
2019-05-19T17:49:42.693Z,40.70
2019-05-19T17:52:12.812Z,40.90
2019-05-19T17:54:42.257Z,40.60
2019-05-19T17:57:11.820Z,41.20
2019-05-19T17:59:43.086Z,41.70
2019-05-19T18:02:13.632Z,42.00
2019-05-19T18:04:43.180Z,42.40
2019-05-19T18:07:13.328Z,42.30
2019-05-19T18:09:43.050Z,43.00
2019-05-19T18:12:13.573Z,42.80
2019-05-19T18:14:43.086Z,43.40
2019-05-19T18:17:12.574Z,43.60
2019-05-19T18:19:42.477Z,43.90
2019-05-19T18:22:11.789Z,44.50
2019-05-19T18:24:41.281Z,44.50
2019-05-19T18:27:10.494Z,44.60
2019-05-19T18:29:39.998Z,44.80
2019-05-19T18:34:19.230Z,45.30
2019-05-19T18:36:48.638Z,45.10
2019-05-19T18:39:18.034Z,45.20
2019-05-19T18:41:47.433Z,45.10
2019-05-19T18:44:16.837Z,45.20
2019-05-19T18:46:46.353Z,45.30
2019-05-19T18:49:18.567Z,45.10
2019-05-19T18:51:48.117Z,45.50
2019-05-19T18:54:17.619Z,44.90
2019-05-19T18:56:50.593Z,45.50
2019-05-19T18:59:18.577Z,45.20
2019-05-19T19:01:49.324Z,45.90
2019-05-19T19:04:18.828Z,45.50
2019-05-19T19:06:48.210Z,45.90
2019-05-19T19:09:17.715Z,45.20
2019-05-19T19:11:47.117Z,46.00
2019-05-19T19:14:16.550Z,46.10
2019-05-19T19:16:46.044Z,45.90
2019-05-19T19:19:15.529Z,46.10
2019-05-19T19:21:44.901Z,46.20
2019-05-19T19:24:14.438Z,46.90
2019-05-19T19:26:43.928Z,46.40
2019-05-19T19:29:13.545Z,47.10
2019-05-19T19:31:48.668Z,47.20
2019-05-19T19:34:14.102Z,47.60
2019-05-19T19:36:43.746Z,48.30
2019-05-19T19:39:13.191Z,48.30
2019-05-19T19:41:42.641Z,48.20
2019-05-19T19:44:13.687Z,48.40
2019-05-19T19:46:43.169Z,48.30
2019-05-19T19:49:12.600Z,48.40
2019-05-19T19:54:02.458Z,48.70
2019-05-19T19:56:32.010Z,49.50
2019-05-19T19:59:01.532Z,49.20
2019-05-19T20:01:31.450Z,49.80
2019-05-19T20:04:00.834Z,49.50
2019-05-19T20:06:30.275Z,50.30
2019-05-19T20:08:59.648Z,49.90
2019-05-19T20:11:29.079Z,49.90
2019-05-19T20:14:19.984Z,50.10
2019-05-19T20:16:49.398Z,50.40
2019-05-19T20:19:18.681Z,50.60
2019-05-19T20:22:22.056Z,50.60
2019-05-19T20:26:20.739Z,51.20
2019-05-19T20:28:50.134Z,51.60
2019-05-19T20:31:19.494Z,51.70
2019-05-19T20:34:21.159Z,51.60
2019-05-19T20:36:50.445Z,52.40
2019-05-19T20:39:19.782Z,52.60
2019-05-19T20:42:23.016Z,52.90
2019-05-19T20:44:52.348Z,52.60
2019-05-19T20:47:21.762Z,52.80
2019-05-19T20:49:51.131Z,52.90
2019-05-19T20:52:20.519Z,53.10
2019-05-19T20:54:49.851Z,53.10
2019-05-19T20:57:19.195Z,53.30
2019-05-19T20:59:48.543Z,53.80
2019-05-19T21:02:17.917Z,53.90
2019-05-19T21:04:47.367Z,54.00
2019-05-19T21:07:16.795Z,54.30
2019-05-19T21:09:46.408Z,54.60
2019-05-19T21:12:15.838Z,54.80
2019-05-19T21:14:45.214Z,54.70
2019-05-19T21:17:15.841Z,54.80
2019-05-19T21:19:46.740Z,55.20
2019-05-19T21:22:16.070Z,55.80
2019-05-19T21:24:45.351Z,56.20
2019-05-19T21:29:43.729Z,57.20
2019-05-19T21:32:13.093Z,57.60
2019-05-19T21:34:42.557Z,57.80
2019-05-19T21:37:11.871Z,58.20
2019-05-19T21:42:23.031Z,57.80
2019-05-19T21:44:52.377Z,57.70
2019-05-19T21:47:21.728Z,58.00
2019-05-19T21:49:51.121Z,58.70
2019-05-19T21:52:20.488Z,58.90
2019-05-19T21:54:49.998Z,58.70
2019-05-19T21:57:19.410Z,58.60
2019-05-19T21:59:48.792Z,58.20
2019-05-19T22:02:18.198Z,58.70
2019-05-19T22:04:48.554Z,59.10
2019-05-19T22:07:34.922Z,58.70
2019-05-19T22:10:05.619Z,59.70
2019-05-19T22:12:34.989Z,59.80
2019-05-19T22:15:06.064Z,60.10
2019-05-19T22:17:36.523Z,60.10
2019-05-19T22:25:21.903Z,61.40
2019-05-19T22:27:51.371Z,61.10
2019-05-19T22:30:20.926Z,61.00
2019-05-19T22:34:24.887Z,60.60
2019-05-19T22:36:54.412Z,61.50
2019-05-19T22:39:23.832Z,62.00
2019-05-19T22:41:53.389Z,62.10
2019-05-19T22:49:20.943Z,62.80
2019-05-19T22:51:50.380Z,62.60
2019-05-19T22:54:26.260Z,62.80
2019-05-19T22:56:58.166Z,62.50
2019-05-19T22:59:27.563Z,62.90
2019-05-19T23:01:56.979Z,63.10
2019-05-19T23:04:26.340Z,63.20
2019-05-19T23:06:55.785Z,63.20
2019-05-19T23:09:25.254Z,63.80
2019-05-19T23:14:23.770Z,63.80
2019-05-19T23:16:53.187Z,63.60
2019-05-19T23:19:22.614Z,63.90
2019-05-19T23:21:52.085Z,64.30
2019-05-19T23:24:21.426Z,65.20
2019-05-19T23:29:19.883Z,66.20
2019-05-19T23:31:49.498Z,66.10
2019-05-19T23:34:19.032Z,65.70
2019-05-19T23:36:48.482Z,66.30
2019-05-19T23:46:45.053Z,66.60
2019-05-19T23:54:12.875Z,67.70
2019-05-19T23:56:47.527Z,67.70
2019-05-19T23:59:19.504Z,67.30
